This is the latest recevied weather packets stored in our database for station/object SQ8SW-4. If no packets are shown the sender has not sent any weather packets the latest 1 day(s).
| Time | Temp. | Humidity | Pressure | Rain* | Wind** | Luminosity | Snow |
|---|---|---|---|---|---|---|---|
| 1778036154 | 17.22° C | 47% | 980 hPa | - | - | - | - |
| 1778035252 | 17.22° C | 47% | 980 hPa | - | - | - | - |
| 1778034350 | 17.22° C | 46% | 980 hPa | - | - | - | - |
| 1778033448 | 16.67° C | 47% | 980 hPa | - | - | - | - |
| 1778032545 | 16.11° C | 46% | 980 hPa | - | - | - | - |
| 1778031643 | 15.56° C | 49% | 980 hPa | - | - | - | - |
| 1778030741 | 15° C | 52% | 980 hPa | - | - | - | - |
| 1778029839 | 15° C | 52% | 980 hPa | - | - | - | - |
| 1778027132 | 15° C | 50% | 980 hPa | - | - | - | - |
| 1778026230 | 15° C | 50% | 980 hPa | - | - | - | - |
| 1778025328 | 15.56° C | 51% | 980 hPa | - | - | - | - |
| 1778022621 | 15.56° C | 48% | 980 hPa | - | - | - | - |
| 1778021719 | 15.56° C | 48% | 980 hPa | - | - | - | - |
| 1778020827 | 16.11° C | 49% | 980 hPa | - | - | - | - |
| 1778018110 | 16.67° C | 46% | 981 hPa | - | - | - | - |
| 1778011776 | 20° C | 37% | 980 hPa | - | - | - | - |
| 1778010874 | 20.56° C | 37% | 980 hPa | - | - | - | - |
| 1778007265 | 22.22° C | 33% | 980 hPa | - | - | - | - |
| 1778006363 | 22.22° C | 33% | 980 hPa | - | - | - | - |
| 1778002754 | 25° C | 30% | 980 hPa | - | - | - | - |
| 1777998243 | 25° C | 28% | 980 hPa | - | - | - | - |
| 1777995536 | 26.67° C | 27% | 980 hPa | - | - | - | - |
| 1777994634 | 26.11° C | 26% | 980 hPa | - | - | - | - |
| 1777993732 | 26.11° C | 27% | 980 hPa | - | - | - | - |
| 1777991025 | 27.22° C | 25% | 981 hPa | - | - | - | - |
* Rain since midnight (hover to see other rain measurements)
** Current wind speed in m/s (hover to see current wind gust speed)